Time;durP1;ratioP1;P1;durP2;ratioP2;P2;SDS_P1;SDS_P2;PMS_P1;PMS_P2;Temp;Humidity;BMP_temperature;BMP_pressure;BME280_temperature;BME280_humidity;BME280_pressure;Samples;Min_cycle;Max_cycle;Signal;HPM_P1;HPM_P2
2022/06/26 00:00:03;;;;;;;6.00;5.40;;;21.80;99.90;;;;;;4896249;29;20593;-55
2022/06/26 00:02:35;;;;;;;6.03;5.43;;;21.80;99.90;;;;;;4898718;29;20324;-54
2022/06/26 00:05:06;;;;;;;5.90;5.37;;;21.70;99.90;;;;;;4896528;29;20233;-55
2022/06/26 00:07:36;;;;;;;7.23;6.07;;;21.80;99.90;;;;;;4880991;29;20237;-53
2022/06/26 00:10:06;;;;;;;5.97;5.37;;;21.80;99.90;;;;;;4886880;29;20270;-55
2022/06/26 00:12:34;;;;;;;6.57;5.93;;;21.70;99.90;;;;;;4890015;29;20232;-52
2022/06/26 00:15:03;;;;;;;7.17;5.80;;;21.70;99.90;;;;;;4894531;29;20585;-55
2022/06/26 00:17:31;;;;;;;6.70;6.07;;;21.80;99.90;;;;;;4892690;29;20256;-54
2022/06/26 00:20:00;;;;;;;6.37;5.87;;;21.70;99.90;;;;;;4892456;29;20228;-53
2022/06/26 00:22:28;;;;;;;7.10;6.27;;;21.70;99.90;;;;;;4896161;29;20244;-53
2022/06/26 00:24:57;;;;;;;7.10;6.23;;;21.70;99.90;;;;;;4879309;29;20229;-54
2022/06/26 00:27:26;;;;;;;7.97;6.70;;;21.70;99.90;;;;;;4898468;29;20328;-54
2022/06/26 00:29:54;;;;;;;6.70;6.00;;;21.60;99.90;;;;;;4889200;29;20248;-55
2022/06/26 00:32:22;;;;;;;7.10;6.40;;;21.60;99.90;;;;;;4898001;29;20244;-55
2022/06/26 00:34:50;;;;;;;7.50;5.93;;;21.60;99.90;;;;;;4891173;29;20284;-55
2022/06/26 00:37:18;;;;;;;7.47;6.47;;;21.60;99.90;;;;;;4890246;29;20241;-54
2022/06/26 00:39:46;;;;;;;7.07;6.43;;;21.50;99.90;;;;;;4892442;29;20250;-54
2022/06/26 00:42:16;;;;;;;7.13;6.50;;;21.50;99.90;;;;;;4889950;29;20244;-52
2022/06/26 00:44:44;;;;;;;7.93;7.17;;;21.50;99.90;;;;;;4877322;29;20227;-54
2022/06/26 00:47:12;;;;;;;6.97;6.27;;;21.40;99.90;;;;;;4893077;29;20293;-54
2022/06/26 00:49:40;;;;;;;6.97;6.40;;;21.40;99.90;;;;;;4882674;29;20233;-54
2022/06/26 00:52:09;;;;;;;7.57;6.93;;;21.40;99.90;;;;;;4896655;29;20243;-54
2022/06/26 00:54:38;;;;;;;7.50;6.63;;;21.40;99.90;;;;;;4875120;29;20685;-53
2022/06/26 00:57:06;;;;;;;6.33;5.83;;;21.40;99.90;;;;;;4897803;29;20281;-53
2022/06/26 00:59:37;;;;;;;7.43;6.50;;;21.40;99.90;;;;;;4893452;29;20240;-53
2022/06/26 01:02:05;;;;;;;7.43;6.77;;;21.40;99.90;;;;;;4897292;29;20226;-53
2022/06/26 01:04:34;;;;;;;7.00;6.40;;;21.30;99.90;;;;;;4892262;29;20285;-53
2022/06/26 01:07:02;;;;;;;6.97;6.10;;;21.30;99.90;;;;;;4895739;29;20232;-55
2022/06/26 01:09:30;;;;;;;7.70;6.90;;;21.30;99.90;;;;;;4882373;29;20725;-53
2022/06/26 01:11:59;;;;;;;6.70;6.10;;;21.30;99.90;;;;;;4886761;29;20732;-53
2022/06/26 01:14:27;;;;;;;7.13;6.43;;;21.30;99.90;;;;;;4891094;29;20410;-53
2022/06/26 01:16:56;;;;;;;6.90;6.23;;;21.20;99.90;;;;;;4895100;29;20799;-55
2022/06/26 01:19:25;;;;;;;6.80;6.20;;;21.20;99.90;;;;;;4886506;29;20256;-54
2022/06/26 01:21:53;;;;;;;6.73;6.13;;;21.20;99.90;;;;;;4912258;29;20240;-54
2022/06/26 01:24:23;;;;;;;8.63;7.37;;;21.20;99.90;;;;;;4876370;29;20237;-55
2022/06/26 01:26:51;;;;;;;7.30;6.70;;;21.10;99.90;;;;;;4896336;29;20236;-54
2022/06/26 01:29:19;;;;;;;7.63;6.93;;;21.10;99.90;;;;;;4887260;29;20261;-52
2022/06/26 01:31:48;;;;;;;8.00;7.30;;;21.10;99.90;;;;;;4895734;29;20234;-54
2022/06/26 01:34:17;;;;;;;7.47;6.87;;;21.10;99.90;;;;;;4895139;29;20649;-54
2022/06/26 01:36:45;;;;;;;8.00;7.30;;;21.00;99.90;;;;;;4896231;29;20264;-53
2022/06/26 01:39:13;;;;;;;8.47;7.67;;;21.00;99.90;;;;;;4900152;29;20268;-52
2022/06/26 01:41:43;;;;;;;8.40;7.60;;;20.90;99.90;;;;;;4874966;29;20252;-53
2022/06/26 01:44:12;;;;;;;7.93;7.23;;;20.90;99.90;;;;;;4888010;29;20228;-55
2022/06/26 01:46:40;;;;;;;8.60;7.73;;;20.90;99.90;;;;;;4891792;29;20293;-55
2022/06/26 01:49:09;;;;;;;8.03;7.23;;;20.90;99.90;;;;;;4874221;29;20224;-54
2022/06/26 01:51:38;;;;;;;9.17;8.27;;;20.90;99.90;;;;;;4895757;29;20641;-54
2022/06/26 01:54:07;;;;;;;8.83;8.00;;;20.80;99.90;;;;;;4882826;29;20234;-52
2022/06/26 01:56:36;;;;;;;8.73;7.93;;;20.90;99.90;;;;;;4914519;29;20716;-54
2022/06/26 01:59:05;;;;;;;8.33;7.63;;;20.80;99.90;;;;;;4896838;29;20231;-53
2022/06/26 02:01:42;;;;;;;8.80;7.97;;;20.80;99.90;;;;;;4900012;29;20733;-53
2022/06/26 02:04:16;;;;;;;8.57;7.80;;;20.80;99.90;;;;;;4915228;29;20665;-54
2022/06/26 02:06:46;;;;;;;8.40;7.70;;;20.80;99.90;;;;;;4894113;29;20224;-54
2022/06/26 02:14:56;;;;;;;8.53;7.77;;;20.70;99.90;;;;;;4884631;29;20316;-54
2022/06/26 02:17:24;;;;;;;8.47;7.70;;;20.70;99.90;;;;;;4894343;29;20598;-54
2022/06/26 02:19:53;;;;;;;9.50;8.53;;;20.60;99.90;;;;;;4896817;29;20222;-53
2022/06/26 02:22:21;;;;;;;8.60;7.90;;;20.60;99.90;;;;;;4898379;29;20584;-54
2022/06/26 02:24:49;;;;;;;8.77;8.07;;;20.60;99.90;;;;;;4873942;29;20233;-54
2022/06/26 02:27:18;;;;;;;8.83;7.93;;;20.50;99.90;;;;;;4899092;29;20326;-53
2022/06/26 02:29:46;;;;;;;9.87;8.87;;;20.50;99.90;;;;;;4889553;29;20324;-53
2022/06/26 02:32:17;;;;;;;8.50;7.77;;;20.60;99.90;;;;;;4898709;29;20286;-53
2022/06/26 02:34:45;;;;;;;8.70;7.97;;;20.50;99.90;;;;;;4895923;29;20262;-53
2022/06/26 02:37:13;;;;;;;8.23;7.53;;;20.50;99.90;;;;;;4914387;29;20230;-55
2022/06/26 02:39:43;;;;;;;8.70;7.90;;;20.50;99.90;;;;;;4897462;29;20248;-54
2022/06/26 02:42:11;;;;;;;8.97;8.17;;;20.40;99.90;;;;;;4914750;29;20260;-54
2022/06/26 02:44:42;;;;;;;8.57;7.87;;;20.40;99.90;;;;;;4899243;29;20232;-54
2022/06/26 02:47:10;;;;;;;8.77;8.03;;;20.40;99.90;;;;;;4900102;29;20756;-53
2022/06/26 02:49:39;;;;;;;8.80;7.97;;;20.40;99.90;;;;;;4896858;29;20308;-53
2022/06/26 02:52:08;;;;;;;8.60;7.90;;;20.30;99.90;;;;;;4914477;29;20260;-53
2022/06/26 02:54:37;;;;;;;8.97;8.17;;;20.30;99.90;;;;;;4893098;29;20842;-52
2022/06/26 02:57:06;;;;;;;9.67;8.77;;;20.30;99.90;;;;;;4899638;29;20712;-54
2022/06/26 02:59:35;;;;;;;8.77;7.97;;;20.30;99.90;;;;;;4897474;29;20228;-52
2022/06/26 03:02:04;;;;;;;8.63;7.87;;;20.30;99.90;;;;;;4899625;29;20239;-53
2022/06/26 03:04:45;;;;;;;8.50;7.80;;;20.30;99.90;;;;;;4898829;29;20700;-54
2022/06/26 03:07:18;;;;;;;7.93;7.23;;;20.30;99.90;;;;;;4895050;29;20711;-54
2022/06/26 03:09:47;;;;;;;9.00;8.20;;;20.30;99.90;;;;;;4889479;29;20229;-53
2022/06/26 03:12:15;;;;;;;8.70;8.10;;;20.30;99.90;;;;;;4891893;29;20651;-53
2022/06/26 03:14:43;;;;;;;9.47;8.67;;;20.30;99.90;;;;;;4885165;29;20239;-52
2022/06/26 03:17:11;;;;;;;9.43;8.60;;;20.20;99.90;;;;;;4894586;29;20237;-53
2022/06/26 03:19:40;;;;;;;9.80;8.90;;;20.20;99.90;;;;;;4895100;29;20235;-53
2022/06/26 03:22:09;;;;;;;8.37;7.63;;;20.20;99.90;;;;;;4899637;29;20247;-52
2022/06/26 03:24:38;;;;;;;8.57;7.87;;;20.30;99.90;;;;;;4880233;29;20597;-52
2022/06/26 03:27:07;;;;;;;8.90;8.20;;;20.30;99.90;;;;;;4881402;29;20225;-53
2022/06/26 03:29:36;;;;;;;9.23;8.53;;;20.30;99.90;;;;;;4889494;29;20226;-53
2022/06/26 03:32:08;;;;;;;8.50;7.80;;;20.30;99.90;;;;;;4888299;29;20591;-53
2022/06/26 03:34:43;;;;;;;8.63;7.77;;;20.30;99.90;;;;;;4914024;29;20233;-55
2022/06/26 03:37:13;;;;;;;8.13;7.53;;;20.30;99.90;;;;;;4913552;29;20243;-54
2022/06/26 03:39:42;;;;;;;10.50;7.60;;;20.40;99.90;;;;;;4896678;29;20248;-54
2022/06/26 03:42:15;;;;;;;9.33;8.30;;;20.40;99.90;;;;;;4897556;29;20644;-53
2022/06/26 03:44:43;;;;;;;7.93;7.20;;;20.40;99.90;;;;;;4913913;29;20697;-54
2022/06/26 03:47:11;;;;;;;7.87;7.27;;;20.50;99.90;;;;;;4898941;29;20247;-54
2022/06/26 03:49:39;;;;;;;8.83;8.03;;;20.50;99.90;;;;;;4894482;29;20239;-53
2022/06/26 03:52:08;;;;;;;9.20;8.50;;;20.50;99.90;;;;;;4897493;29;20596;-53
2022/06/26 03:54:40;;;;;;;8.43;7.73;;;20.50;99.90;;;;;;4879718;29;20237;-53
2022/06/26 03:57:08;;;;;;;8.70;7.90;;;20.50;99.90;;;;;;4887422;29;20233;-54
2022/06/26 03:59:36;;;;;;;9.03;8.33;;;20.60;99.90;;;;;;4898021;29;20612;-54
2022/06/26 04:02:05;;;;;;;9.10;8.30;;;20.60;99.90;;;;;;4904616;29;20216;-52
2022/06/26 04:04:33;;;;;;;8.63;7.97;;;20.60;99.90;;;;;;4908069;29;20712;-53
2022/06/26 04:07:01;;;;;;;9.37;8.63;;;20.60;99.90;;;;;;4905234;29;20225;-54
2022/06/26 04:09:34;;;;;;;9.53;8.70;;;20.60;99.90;;;;;;4898998;29;20232;-53
2022/06/26 04:12:05;;;;;;;9.93;8.27;;;20.60;99.90;;;;;;4920500;29;20236;-53
2022/06/26 04:14:37;;;;;;;9.33;8.40;;;20.70;99.90;;;;;;4903363;29;20708;-54
2022/06/26 04:17:06;;;;;;;8.30;7.50;;;20.80;99.90;;;;;;4902446;29;20720;-52
2022/06/26 04:19:38;;;;;;;9.87;8.50;;;20.90;99.90;;;;;;4902272;29;20228;-53
2022/06/26 04:22:08;;;;;;;8.30;7.60;;;20.90;99.90;;;;;;4919013;29;20589;-53
2022/06/26 04:24:38;;;;;;;9.43;8.47;;;20.90;99.90;;;;;;4902816;29;20236;-54
2022/06/26 04:27:08;;;;;;;8.87;8.00;;;20.90;99.90;;;;;;4906563;29;20278;-52
2022/06/26 04:29:37;;;;;;;9.27;8.37;;;20.80;99.90;;;;;;4901477;29;20233;-53
2022/06/26 04:32:05;;;;;;;9.07;8.37;;;20.80;99.90;;;;;;4896433;29;20244;-55
2022/06/26 04:34:39;;;;;;;8.43;7.63;;;20.80;99.90;;;;;;4897319;29;20318;-53
2022/06/26 04:37:08;;;;;;;9.27;8.40;;;20.80;99.90;;;;;;4912477;29;20251;-53
2022/06/26 04:39:36;;;;;;;8.73;7.93;;;20.90;99.90;;;;;;4895073;29;20751;-53
2022/06/26 04:42:05;;;;;;;7.60;7.00;;;21.00;99.90;;;;;;4920879;29;20232;-53
2022/06/26 04:44:39;;;;;;;7.97;7.13;;;21.30;99.90;;;;;;4902829;29;20236;-52
2022/06/26 04:47:08;;;;;;;7.63;7.03;;;21.50;99.90;;;;;;4918029;29;20242;-52
2022/06/26 04:49:52;;;;;;;8.00;7.30;;;21.70;99.90;;;;;;4912546;29;20230;-52
2022/06/26 04:52:20;;;;;;;7.30;6.60;;;21.90;99.90;;;;;;4905002;29;20257;-53
2022/06/26 04:54:51;;;;;;;7.33;6.73;;;22.10;99.90;;;;;;4904182;29;20279;-52
2022/06/26 04:57:25;;;;;;;7.40;6.70;;;22.30;99.90;;;;;;4919079;29;20324;-51
2022/06/26 04:59:54;;;;;;;7.60;6.50;;;22.60;99.90;;;;;;4903611;29;20228;-53
2022/06/26 05:02:23;;;;;;;6.80;6.17;;;22.80;99.90;;;;;;4904122;29;20254;-53
2022/06/26 05:05:02;;;;;;;6.73;6.13;;;22.90;99.90;;;;;;4894418;29;20681;-54
2022/06/26 05:07:36;;;;;;;6.80;6.10;;;23.00;99.90;;;;;;4901879;29;20228;-52
2022/06/26 05:10:08;;;;;;;6.87;6.27;;;23.20;99.90;;;;;;4894024;29;20634;-52
2022/06/26 05:12:48;;;;;;;6.80;6.20;;;23.20;99.90;;;;;;4896042;29;20237;-54
2022/06/26 05:15:31;;;;;;;6.50;6.00;;;23.00;99.90;;;;;;4896041;29;20710;-52
2022/06/26 05:18:00;;;;;;;6.17;5.67;;;22.90;99.90;;;;;;4895507;29;20225;-54
2022/06/26 05:20:29;;;;;;;6.13;5.57;;;22.80;99.90;;;;;;4895176;29;20245;-53
2022/06/26 05:22:57;;;;;;;6.90;6.20;;;22.70;99.90;;;;;;4895039;29;20307;-54
2022/06/26 05:25:25;;;;;;;5.83;5.43;;;22.50;99.90;;;;;;4895733;29;20221;-52
2022/06/26 05:27:56;;;;;;;6.50;6.00;;;22.60;99.90;;;;;;4893061;29;20289;-52
2022/06/26 05:30:24;;;;;;;6.07;5.50;;;22.70;99.90;;;;;;4894979;29;20221;-53
2022/06/26 05:32:58;;;;;;;5.63;5.10;;;23.00;99.90;;;;;;4908960;29;20232;-53
2022/06/26 05:35:26;;;;;;;5.80;5.30;;;23.20;99.90;;;;;;4919349;28;20253;-51
2022/06/26 05:37:54;;;;;;;7.10;5.60;;;23.40;99.90;;;;;;4893217;29;20269;-54
2022/06/26 05:40:24;;;;;;;5.87;5.27;;;23.50;99.90;;;;;;4894088;29;20246;-55
2022/06/26 05:42:54;;;;;;;7.00;5.57;;;23.60;99.90;;;;;;4896963;29;20217;-53
2022/06/26 05:45:25;;;;;;;5.63;5.20;;;23.50;99.90;;;;;;4894955;29;20649;-54
2022/06/26 05:48:30;;;;;;;6.57;5.30;;;23.40;99.90;;;;;;4832159;29;20688;-53
2022/06/26 05:51:24;;;;;;;5.33;4.90;;;23.30;99.90;;;;;;4893388;29;20237;-53
2022/06/26 05:54:03;;;;;;;4.93;4.53;;;23.30;99.90;;;;;;4894467;29;20236;-53
2022/06/26 05:56:52;;;;;;;5.63;4.63;;;23.50;99.90;;;;;;4896499;29;20233;-52
2022/06/26 05:59:34;;;;;;;5.70;5.20;;;23.80;99.90;;;;;;4893595;29;20221;-51
2022/06/26 06:02:21;;;;;;;5.67;5.07;;;23.90;99.90;;;;;;4894360;29;20244;-53
2022/06/26 06:04:51;;;;;;;5.63;5.13;;;24.30;99.90;;;;;;4895235;29;20229;-52
2022/06/26 06:07:19;;;;;;;5.67;5.13;;;24.30;99.90;;;;;;4900817;29;20225;-52
2022/06/26 06:09:47;;;;;;;4.83;4.50;;;24.20;99.90;;;;;;4902267;29;20221;-54
2022/06/26 06:12:16;;;;;;;5.30;4.90;;;24.10;99.90;;;;;;4896598;29;20236;-54
2022/06/26 06:14:45;;;;;;;5.47;5.00;;;24.00;99.90;;;;;;4895431;29;20267;-52
2022/06/26 06:20:03;;;;;;;5.37;4.97;;;23.90;99.90;;;;;;4911260;29;20228;-53
2022/06/26 06:22:37;;;;;;;5.13;4.23;;;24.30;99.90;;;;;;4899527;29;20701;-53
2022/06/26 06:25:06;;;;;;;5.50;4.80;;;24.90;99.90;;;;;;4901453;29;20229;-54
2022/06/26 06:27:42;;;;;;;5.83;4.70;;;25.50;99.90;;;;;;4909762;29;20846;-54
2022/06/26 06:30:15;;;;;;;5.20;4.70;;;26.00;99.90;;;;;;4910655;29;20237;-53
2022/06/26 06:32:45;;;;;;;4.83;4.50;;;26.10;99.90;;;;;;4880639;29;20255;-53
2022/06/26 06:35:41;;;;;;;4.40;4.00;;;26.20;99.90;;;;;;4866081;29;20698;-54
2022/06/26 06:38:11;;;;;;;4.27;3.97;;;26.40;99.90;;;;;;4865521;29;20236;-54
2022/06/26 06:40:44;;;;;;;4.27;3.83;;;26.40;99.90;;;;;;4883601;29;20656;-55
2022/06/26 06:43:13;;;;;;;4.57;4.20;;;26.60;99.90;;;;;;4885866;29;20279;-53
2022/06/26 06:46:00;;;;;;;4.07;3.77;;;26.80;99.90;;;;;;4871284;29;20354;-54
2022/06/26 06:48:29;;;;;;;4.27;3.87;;;26.90;99.90;;;;;;4884365;29;20324;-56
2022/06/26 06:51:17;;;;;;;4.27;3.87;;;27.20;99.90;;;;;;4869630;29;20243;-53
2022/06/26 06:53:45;;;;;;;3.97;3.60;;;27.50;99.90;;;;;;4884434;29;20308;-54
2022/06/26 06:56:14;;;;;;;3.77;3.47;;;27.70;99.90;;;;;;4869993;29;20241;-54
2022/06/26 06:58:44;;;;;;;3.57;3.27;;;28.00;99.90;;;;;;4868832;29;20253;-52
2022/06/26 07:01:12;;;;;;;5.53;3.77;;;28.20;99.90;;;;;;4865836;29;20237;-52
2022/06/26 07:03:40;;;;;;;3.80;3.50;;;28.40;99.90;;;;;;4868180;29;20304;-53
2022/06/26 07:06:08;;;;;;;5.57;3.40;;;28.50;99.90;;;;;;4868707;29;20261;-52
2022/06/26 07:08:38;;;;;;;3.83;3.20;;;28.70;99.90;;;;;;4867577;29;20257;-53
2022/06/26 07:11:06;;;;;;;4.53;2.90;;;28.90;99.90;;;;;;4867318;29;20264;-52
2022/06/26 07:13:34;;;;;;;3.60;3.30;;;28.60;99.90;;;;;;4868136;29;20253;-53
2022/06/26 07:16:03;;;;;;;4.83;3.10;;;28.30;99.90;;;;;;4884542;29;20244;-53
2022/06/26 07:18:31;;;;;;;5.20;2.90;;;28.10;99.90;;;;;;4882732;29;20908;-52
2022/06/26 07:20:59;;;;;;;3.43;3.00;;;28.00;99.90;;;;;;4868928;29;20411;-53
2022/06/26 07:23:28;;;;;;;4.20;3.00;;;27.80;99.90;;;;;;4884826;29;20252;-53
2022/06/26 07:26:06;;;;;;;4.83;3.10;;;27.40;99.90;;;;;;4870940;29;20579;-53
2022/06/26 07:28:38;;;;;;;3.13;2.93;;;27.40;99.90;;;;;;4869180;29;20320;-53
2022/06/26 07:31:07;;;;;;;3.40;3.10;;;27.60;99.90;;;;;;4868427;29;20270;-51
2022/06/26 07:36:22;;;;;;;3.77;3.13;;;27.40;99.90;;;;;;4870116;29;20789;-53
2022/06/26 07:38:50;;;;;;;4.47;3.07;;;27.60;99.90;;;;;;4868661;29;20234;-52
2022/06/26 07:41:21;;;;;;;4.63;3.20;;;27.90;99.90;;;;;;4883713;29;20662;-53
2022/06/26 07:43:50;;;;;;;3.63;2.73;;;28.00;99.90;;;;;;4870183;29;20622;-54
2022/06/26 07:46:18;;;;;;;2.83;2.63;;;28.30;99.90;;;;;;4871348;29;20721;-53
2022/06/26 07:48:50;;;;;;;5.93;3.03;;;28.60;99.90;;;;;;4883455;29;20251;-53
2022/06/26 07:51:18;;;;;;;3.90;2.80;;;28.90;99.90;;;;;;4869018;29;20694;-53
2022/06/26 07:53:47;;;;;;;4.03;3.10;;;29.30;99.90;;;;;;4870674;29;20233;-53
2022/06/26 07:56:15;;;;;;;3.30;3.00;;;29.50;99.90;;;;;;4870708;29;20233;-53
2022/06/26 07:58:44;;;;;;;3.63;3.17;;;29.60;99.90;;;;;;4870058;29;20733;-53
2022/06/26 08:01:13;;;;;;;9.80;3.33;;;29.70;99.90;;;;;;4868095;29;20321;-51
2022/06/26 08:03:45;;;;;;;2.70;2.50;;;29.80;99.90;;;;;;4870230;29;20244;-54
2022/06/26 08:06:13;;;;;;;3.27;2.97;;;30.10;99.90;;;;;;4869171;29;20257;-52
2022/06/26 08:08:41;;;;;;;3.40;3.20;;;30.70;99.90;;;;;;4869076;29;20242;-54
2022/06/26 08:11:10;;;;;;;3.53;3.23;;;30.90;99.90;;;;;;4868218;29;20245;-53
2022/06/26 08:13:38;;;;;;;3.37;3.07;;;30.60;99.90;;;;;;4871161;29;20230;-53
2022/06/26 08:16:07;;;;;;;4.77;3.00;;;30.30;99.90;;;;;;4870926;29;20230;-53
2022/06/26 08:18:35;;;;;;;6.13;2.87;;;30.10;99.90;;;;;;4869140;29;20628;-52
2022/06/26 08:23:46;;;;;;;3.77;3.23;;;30.20;99.90;;;;;;4869359;29;20239;-53
2022/06/26 08:26:15;;;;;;;3.93;3.63;;;30.40;99.90;;;;;;4869830;29;20230;-55
2022/06/26 08:28:43;;;;;;;3.37;3.07;;;30.40;99.90;;;;;;4867877;29;20241;-52
2022/06/26 08:31:13;;;;;;;5.60;3.80;;;30.60;99.90;;;;;;4868621;29;20242;-54
2022/06/26 08:33:42;;;;;;;3.53;3.00;;;30.80;99.90;;;;;;4869407;29;20258;-52
2022/06/26 08:36:10;;;;;;;5.53;3.20;;;30.50;99.90;;;;;;4870530;29;20248;-53
2022/06/26 08:38:40;;;;;;;4.90;3.20;;;30.50;99.90;;;;;;4868550;29;20238;-53
2022/06/26 08:41:10;;;;;;;4.30;3.30;;;30.70;99.90;;;;;;4867397;29;20715;-54
2022/06/26 08:43:40;;;;;;;3.77;3.30;;;30.50;99.90;;;;;;4869563;29;20381;-52
2022/06/26 08:46:09;;;;;;;5.63;3.90;;;30.50;99.90;;;;;;4869946;29;20249;-55
2022/06/26 08:48:43;;;;;;;5.80;3.67;;;30.10;99.90;;;;;;4873674;29;20226;-54
2022/06/26 08:51:12;;;;;;;4.60;3.23;;;29.60;99.90;;;;;;4879325;29;20321;-54
2022/06/26 08:53:41;;;;;;;5.33;3.67;;;29.50;99.90;;;;;;4875073;29;20621;-54
2022/06/26 08:56:09;;;;;;;4.63;3.50;;;29.60;99.90;;;;;;4878602;29;20326;-55
2022/06/26 08:58:38;;;;;;;5.67;4.23;;;29.80;99.90;;;;;;4875315;29;20226;-53
2022/06/26 09:01:07;;;;;;;5.23;4.43;;;30.00;99.90;;;;;;4878669;29;20257;-53
2022/06/26 09:03:36;;;;;;;5.20;3.93;;;30.20;99.90;;;;;;4878447;29;20233;-52
2022/06/26 09:06:05;;;;;;;6.10;3.83;;;29.90;99.90;;;;;;4879686;29;20240;-52
2022/06/26 09:08:43;;;;;;;6.77;4.23;;;29.90;99.90;;;;;;4877676;29;20240;-53
2022/06/26 09:11:11;;;;;;;4.60;4.00;;;30.20;99.90;;;;;;4876423;29;20594;-53
2022/06/26 09:13:41;;;;;;;4.40;3.93;;;30.20;99.90;;;;;;4878537;29;20295;-53
2022/06/26 09:16:10;;;;;;;5.87;4.60;;;30.30;99.90;;;;;;4879086;29;20639;-52
2022/06/26 09:18:40;;;;;;;4.47;4.07;;;30.10;99.90;;;;;;4874695;29;20309;-52
2022/06/26 09:21:11;;;;;;;6.50;4.60;;;29.90;99.90;;;;;;4877795;29;20797;-54
2022/06/26 09:23:51;;;;;;;7.83;4.53;;;29.60;99.90;;;;;;4878208;29;20297;-54
2022/06/26 09:26:19;;;;;;;4.70;4.00;;;29.50;99.90;;;;;;4878053;29;20238;-53
2022/06/26 09:28:47;;;;;;;5.57;5.07;;;30.20;99.90;;;;;;4877335;29;20594;-54
2022/06/26 09:31:21;;;;;;;5.03;4.57;;;30.30;99.90;;;;;;4878428;29;20635;-53
2022/06/26 09:33:49;;;;;;;6.07;4.20;;;30.50;99.90;;;;;;4876254;29;20277;-53
2022/06/26 09:36:19;;;;;;;4.77;3.67;;;31.10;99.90;;;;;;4878993;29;20237;-53
2022/06/26 09:38:50;;;;;;;11.63;4.53;;;31.70;99.90;;;;;;4876950;29;20280;-54
2022/06/26 09:41:30;;;;;;;6.13;3.20;;;31.80;99.90;;;;;;4876819;29;20228;-53
2022/06/26 09:43:58;;;;;;;4.57;3.73;;;31.80;99.90;;;;;;4878682;29;20303;-53
2022/06/26 09:46:31;;;;;;;5.00;3.53;;;32.10;99.90;;;;;;4875145;29;20232;-53
2022/06/26 09:49:00;;;;;;;5.97;5.20;;;32.80;99.90;;;;;;4874030;29;20253;-54
2022/06/26 09:51:30;;;;;;;4.27;3.20;;;32.80;99.90;;;;;;4878257;29;20243;-54
2022/06/26 09:53:59;;;;;;;5.27;4.17;;;33.10;99.90;;;;;;4877996;29;20737;-55
2022/06/26 09:56:28;;;;;;;5.43;4.70;;;33.40;99.90;;;;;;4877074;29;20259;-54
2022/06/26 09:58:59;;;;;;;4.10;3.57;;;33.60;99.90;;;;;;4876689;29;20244;-52
2022/06/26 10:07:12;;;;;;;4.83;4.43;;;32.60;99.90;;;;;;4854243;29;20284;-51
2022/06/26 10:09:41;;;;;;;5.60;4.30;;;32.60;99.90;;;;;;4875495;29;20307;-51
2022/06/26 10:12:12;;;;;;;4.03;3.63;;;32.90;99.90;;;;;;4877732;29;20261;-53
2022/06/26 10:14:44;;;;;;;6.30;3.60;;;33.30;99.90;;;;;;4878318;29;20237;-53
2022/06/26 10:17:34;;;;;;;3.67;3.00;;;33.60;99.90;;;;;;4881626;29;20324;-52
2022/06/26 10:20:06;;;;;;;3.00;2.80;;;33.60;99.90;;;;;;4879717;29;20243;-54
2022/06/26 10:22:44;;;;;;;5.10;4.60;;;33.60;99.90;;;;;;4879830;29;20241;-52
2022/06/26 10:25:23;;;;;;;4.83;4.33;;;33.50;99.90;;;;;;4880961;29;20231;-53
2022/06/26 10:27:51;;;;;;;4.20;3.67;;;33.60;99.90;;;;;;4879253;29;20237;-51
2022/06/26 10:30:21;;;;;;;5.87;5.00;;;33.20;99.90;;;;;;4879416;29;20233;-53
2022/06/26 10:33:08;;;;;;;5.30;4.80;;;32.80;99.90;;;;;;4881438;29;20248;-54
2022/06/26 10:35:41;;;;;;;5.87;4.43;;;32.50;99.90;;;;;;4882013;29;20674;-54
2022/06/26 10:38:23;;;;;;;5.83;4.70;;;32.40;99.90;;;;;;4879293;29;20270;-53
2022/06/26 10:44:03;;;;;;;6.33;4.97;;;32.80;99.90;;;;;;4881266;29;20324;-53
2022/06/26 10:46:39;;;;;;;6.03;5.53;;;32.20;99.90;;;;;;4881464;29;20298;-54
2022/06/26 10:49:08;;;;;;;7.00;6.30;;;31.40;99.90;;;;;;4879592;29;20230;-54
2022/06/26 10:51:40;;;;;;;7.07;5.83;;;31.10;99.90;;;;;;4881248;29;20229;-52
2022/06/26 10:54:21;;;;;;;5.20;4.70;;;31.00;99.90;;;;;;4881356;29;20236;-52
2022/06/26 10:57:03;;;;;;;4.80;4.30;;;30.90;99.90;;;;;;4881681;29;20238;-52
2022/06/26 10:59:31;;;;;;;6.07;4.73;;;31.00;99.90;;;;;;4880457;29;20942;-53
2022/06/26 11:02:00;;;;;;;4.57;4.17;;;31.60;99.90;;;;;;4881002;29;20236;-54
2022/06/26 11:04:28;;;;;;;5.40;4.70;;;32.30;99.90;;;;;;4881444;29;20227;-52
2022/06/26 11:06:56;;;;;;;6.77;5.40;;;32.30;99.90;;;;;;4880489;29;20240;-52
2022/06/26 11:09:25;;;;;;;4.43;4.03;;;31.80;99.90;;;;;;4878685;29;20648;-55
2022/06/26 11:11:53;;;;;;;4.40;3.57;;;31.10;99.90;;;;;;4880927;29;20313;-52
2022/06/26 11:14:21;;;;;;;3.30;3.00;;;31.20;99.90;;;;;;4880900;29;20754;-53
2022/06/26 11:16:49;;;;;;;3.13;2.83;;;31.80;99.90;;;;;;4879428;29;20574;-52
2022/06/26 11:19:23;;;;;;;4.43;3.03;;;32.20;99.90;;;;;;4879652;29;20594;-52
2022/06/26 11:21:51;;;;;;;5.47;2.80;;;32.80;99.90;;;;;;4874537;29;20328;-52
2022/06/26 11:24:19;;;;;;;4.67;3.17;;;32.90;99.90;;;;;;4877838;29;20656;-53
2022/06/26 11:26:54;;;;;;;2.70;2.43;;;33.20;99.90;;;;;;4872384;29;20269;-49
2022/06/26 11:29:22;;;;;;;2.60;2.37;;;33.40;99.90;;;;;;4875934;29;20770;-53
2022/06/26 11:31:51;;;;;;;4.23;2.40;;;33.60;99.90;;;;;;4874354;29;20236;-50
2022/06/26 11:34:20;;;;;;;3.20;1.87;;;33.70;99.90;;;;;;4877013;29;20239;-54
2022/06/26 11:36:52;;;;;;;3.67;2.10;;;33.40;99.90;;;;;;4881208;29;20729;-54
2022/06/26 11:39:38;;;;;;;2.43;1.87;;;32.70;99.90;;;;;;4879054;29;20253;-55
2022/06/26 11:42:16;;;;;;;2.13;2.00;;;32.30;99.90;;;;;;4876062;29;20235;-54
2022/06/26 11:44:48;;;;;;;2.70;1.60;;;32.10;99.90;;;;;;4874394;29;20567;-53
2022/06/26 11:47:16;;;;;;;3.30;2.10;;;31.90;99.90;;;;;;4880422;29;20246;-52
2022/06/26 11:49:45;;;;;;;3.53;1.80;;;31.50;99.90;;;;;;4879232;29;20616;-55
2022/06/26 11:52:14;;;;;;;4.40;1.90;;;31.10;99.90;;;;;;4879675;29;20702;-54
2022/06/26 11:54:43;;;;;;;2.03;1.53;;;30.60;99.90;;;;;;4872919;29;20240;-53
2022/06/26 11:57:12;;;;;;;1.53;1.40;;;30.90;99.90;;;;;;4880189;29;20709;-54
2022/06/26 11:59:43;;;;;;;1.37;1.20;;;31.40;99.90;;;;;;4873647;29;20248;-53
2022/06/26 12:02:21;;;;;;;2.13;1.40;;;32.30;99.90;;;;;;4879868;29;20635;-53
2022/06/26 12:04:56;;;;;;;1.90;1.43;;;32.60;99.90;;;;;;4880394;29;20325;-54
2022/06/26 12:07:24;;;;;;;2.10;1.50;;;32.60;99.90;;;;;;4879819;29;20262;-54
2022/06/26 12:09:53;;;;;;;2.13;1.20;;;32.40;99.90;;;;;;4878331;29;20321;-54
2022/06/26 12:12:21;;;;;;;3.27;1.20;;;32.30;99.90;;;;;;4879615;29;20246;-54
2022/06/26 12:14:52;;;;;;;1.83;1.40;;;32.00;99.90;;;;;;4879976;29;20242;-54
2022/06/26 12:17:22;;;;;;;1.40;1.30;;;31.90;99.90;;;;;;4879634;29;20291;-54
2022/06/26 12:19:50;;;;;;;1.50;1.30;;;31.70;99.90;;;;;;4878403;29;20240;-52
2022/06/26 12:22:27;;;;;;;1.73;1.20;;;31.80;99.90;;;;;;4877030;29;20299;-55
2022/06/26 12:24:56;;;;;;;1.40;1.30;;;31.70;99.90;;;;;;4878379;29;20233;-55
2022/06/26 12:27:37;;;;;;;1.23;1.13;;;31.70;99.90;;;;;;4879838;29;20242;-55
2022/06/26 12:30:17;;;;;;;1.60;1.50;;;31.80;99.90;;;;;;4878082;29;20245;-53
2022/06/26 12:32:56;;;;;;;1.87;1.20;;;31.60;99.90;;;;;;4874888;29;20237;-53
2022/06/26 12:35:25;;;;;;;1.60;1.30;;;31.20;99.90;;;;;;4878867;29;20234;-55
2022/06/26 12:37:54;;;;;;;2.93;1.33;;;30.90;99.90;;;;;;4879284;29;20230;-55
2022/06/26 12:40:22;;;;;;;2.43;1.10;;;30.90;99.90;;;;;;4878003;29;20252;-55
2022/06/26 12:42:50;;;;;;;1.77;1.50;;;30.90;99.90;;;;;;4879333;29;20247;-54
2022/06/26 12:45:20;;;;;;;1.30;1.20;;;30.70;99.90;;;;;;4879431;29;20228;-56
2022/06/26 12:47:49;;;;;;;1.30;1.20;;;30.40;99.90;;;;;;4879200;29;20227;-53
2022/06/26 12:50:17;;;;;;;1.57;1.00;;;30.20;99.90;;;;;;4875177;29;20587;-57
2022/06/26 12:52:46;;;;;;;2.43;1.10;;;30.30;99.90;;;;;;4867962;29;20245;-53
2022/06/26 12:55:14;;;;;;;1.40;1.30;;;30.30;99.90;;;;;;4866685;29;20234;-54
2022/06/26 12:57:42;;;;;;;1.67;1.23;;;30.10;99.90;;;;;;4867893;29;20266;-53
2022/06/26 13:00:11;;;;;;;2.80;1.20;;;30.20;99.90;;;;;;4863997;29;20805;-51
2022/06/26 13:02:40;;;;;;;1.67;1.27;;;29.80;99.90;;;;;;4866009;29;20247;-53
2022/06/26 13:05:09;;;;;;;1.70;1.20;;;29.90;99.90;;;;;;4867524;29;21373;-54
2022/06/26 13:07:37;;;;;;;1.77;1.20;;;29.80;99.90;;;;;;4867535;29;20251;-54
2022/06/26 13:10:07;;;;;;;4.27;1.33;;;29.70;99.90;;;;;;4877086;29;20583;-53
2022/06/26 13:12:35;;;;;;;2.27;1.10;;;29.60;99.90;;;;;;4878581;29;20233;-54
2022/06/26 13:15:03;;;;;;;1.73;1.23;;;29.60;99.90;;;;;;4877553;29;20226;-55
2022/06/26 13:17:32;;;;;;;2.70;1.40;;;29.60;99.90;;;;;;4878308;29;20230;-55
2022/06/26 13:20:02;;;;;;;2.43;1.20;;;29.30;99.90;;;;;;4877086;29;20380;-54
2022/06/26 13:22:30;;;;;;;1.93;1.10;;;29.30;99.90;;;;;;4878076;29;20231;-53
2022/06/26 13:24:58;;;;;;;3.33;1.50;;;29.30;99.90;;;;;;4878278;29;20226;-54
2022/06/26 13:27:26;;;;;;;2.00;1.30;;;29.20;99.90;;;;;;4878116;29;20230;-54